Terminal Aerodrome Forecast
Issued by NWS

Home | Current Version | Previous Version | Text Only | Print | Product List | Glossary On
Versions: 1 2 3 4 5 6 7 8 9 10 11 12 13 14 15 16 17 18 19 20 21 22 23 24 25
000
FTUS44 KSJT 271200 AAB
TAFBBD
TAF AMD
KBBD 271235Z 2713/2812 11008KT P6SM OVC009
      TEMPO 2713/2714 SCT009
     FM271400 17011KT P6SM SCT015
     FM271900 16009G17KT P6SM VCTS BKN040CB
     FM280400 16008KT P6SM SCT040
     FM280900 15008KT P6SM OVC015
     FM281000 16008KT P6SM OVC007=

USA.gov is the U.S. government's official web portal to all federal, state and local government web resources and services.